Aérodrome :
LOGIN :

S'inscrire | Disclaimer

   EN    FR    IT 

 










Légende :    VFR   VFR Marginal   IFR   IFR Intensif   IFR Très Intensif
Visi : 
Plafond : 
>= 8 km
>= 3000ft
5 à 8 km
1000 à 3000 ft
1500m à 5 km
500 à 1000 ft
800 à 1500m
200 à 500 ft
< 800m
< 200 ft
Symboles :   Orages  Brouillard  Fortes neiges  Fortes précipitations  Vent > 20 kt
SIGMETs :   Divers  Orages  Givrage  Turbulence  Onde Orograph.  Cendres Volcan.






- Altitude de l'aérodrome : 319 ft


EIME - Casement Air Base

DERNIER METAR :
  • 150200Z 22020KT 9999 -DZ FEW018 02/00 Q0980

METARs EXPIRÉS :
  • 150100Z 22019KT 9999 FEW016 SCT150 02/M00 Q0980
  • 150000Z 23017KT 9999 FEW016 SCT050 02/00 Q0979

TAF TAF EIME
Valide du 15 à 03h jusqu'au 15 à 12h UTC


150200Z 1503/1512 23017G28KT 9999 FEW018 BKN040
BECMG 1503/1505 23013KT
PROB30
TEMPO 1505/1509 SCT004 BKN007
BECMG 1509/1511 17008KT



MET'MAP, la Météo Aéronautique d'un coup d'oeil ! - Copyright ORBIFLY Décembre 2007 - Disclaimer

ORBIFLY MET'MAP TEAM :

Programmation & Développement : Alexandra Zaïnal
Sur une idée originale de : Baudouin d'Aumeries
Assistance à la programmation : Marc-Olivier Méhu
Soutien technique & logistique : Manuel Goepfert

Contact : metmap@orbifly.com




SOURCES & CREDITS :

   NOAA